メインページ
METAR-TAF:

METAR-TAF

空港 :

西安咸陽国際空港

西安, 中華人民共和国

緯度: 34-26N, 経度: 108-45E, 海抜: 479m

現時点の気象観測

当レポートは43分前の02:00(UTC)に作成
南/南西の風 6kt
気温 2°C
湿度 44%
気圧 1032 hPa
視程: 3500m
煙霧

METAR: ZLXY 150200Z 21003MPS 3500 HZ NSC 02/M09 Q1032 NOSIG

時間: 10:43 (02:43 UTC)

予報

当レポートは7時間36分前の19:07(UTC)に作成
予報は15日の 00時(UTC)から 15日の 24時(UTC)まで有効
西/南西の風 6kt
視程: 3000m
煙霧

TAF: ZLXY 141907Z 1500/1524 24003MPS 3000 HZ NSC TX09/1507Z TNM05/23Z

4,000以上の空港の気象観測と天気予報(METAR報とTAF報)

利用可能な観測所は地図上に黄色い丸と赤い丸で示す。

丸の上にカーソルを重ねると観測所名を参照できる。

次にクリックすると気象観測と天気予報を参照できる。

マップの切り替え:黒色「×」印の緑ボタンをクリックして拡大、「-」印の緑ボタンをクリックして縮小、緑色の三角印をクリックして隣りの地図に切り替え


METAR-TAF: